createdAt,value
2023-03-22T00:04:27.117Z,100311.91
2023-03-22T00:09:28.865Z,100314.06
2023-03-22T00:14:30.603Z,100312.13
2023-03-22T00:19:34.332Z,100314.88
2023-03-22T00:24:35.965Z,100319.72
2023-03-22T00:29:37.674Z,100312.22
2023-03-22T00:34:39.270Z,100316.22
2023-03-22T00:39:40.985Z,100306.06
2023-03-22T00:44:42.717Z,100300.06
2023-03-22T00:49:44.244Z,100307.16
2023-03-22T00:54:45.985Z,100300.00
2023-03-22T00:59:47.795Z,100288.88
2023-03-22T01:04:49.919Z,100270.31
2023-03-22T01:09:52.165Z,100271.34
2023-03-22T01:14:53.711Z,100278.28
2023-03-22T01:19:55.399Z,100287.16
2023-03-22T01:24:57.108Z,100305.03
2023-03-22T01:29:58.986Z,100300.63
2023-03-22T01:35:00.681Z,100303.03
2023-03-22T01:40:06.604Z,100288.75
2023-03-22T01:45:14.811Z,100289.81
2023-03-22T01:50:19.488Z,100264.94
2023-03-22T01:55:24.623Z,100246.97
2023-03-22T02:00:39.547Z,100236.34
2023-03-22T02:06:01.819Z,100209.09
2023-03-22T02:11:04.823Z,100197.59
2023-03-22T02:16:32.270Z,100185.00
2023-03-22T02:22:04.777Z,100166.47
2023-03-22T02:27:16.330Z,100159.00
2023-03-22T02:32:42.788Z,100138.66
2023-03-22T02:38:06.493Z,100126.19
2023-03-22T02:43:39.031Z,100114.19
2023-03-22T02:48:40.779Z,100109.13
2023-03-22T02:53:52.054Z,100104.06
2023-03-22T02:58:59.605Z,100079.28
2023-03-22T03:04:04.884Z,100070.09
2023-03-22T03:09:08.180Z,100062.59
2023-03-22T03:14:22.132Z,100060.81
2023-03-22T03:19:52.230Z,100054.84
2023-03-22T03:25:09.452Z,100045.00
2023-03-22T03:30:20.872Z,100032.09
2023-03-22T03:35:33.820Z,100041.53
2023-03-22T03:40:49.041Z,100039.94
2023-03-22T03:45:51.990Z,100042.59
2023-03-22T03:50:56.122Z,100048.56
2023-03-22T03:55:57.816Z,100056.19
2023-03-22T04:01:04.160Z,100050.22
2023-03-22T04:06:26.504Z,100054.31
2023-03-22T04:11:33.884Z,100052.66
2023-03-22T04:16:38.497Z,100060.34
2023-03-22T04:21:43.566Z,100048.56
2023-03-22T04:26:45.525Z,100066.38
2023-03-22T04:31:56.129Z,100061.06
2023-03-22T04:37:08.117Z,100068.84
2023-03-22T04:42:12.701Z,100067.03
2023-03-22T04:47:15.112Z,100067.69
2023-03-22T04:52:17.411Z,100063.41
2023-03-22T04:57:26.769Z,100057.28
2023-03-22T05:02:28.693Z,100069.00
2023-03-22T05:07:31.011Z,100056.25
2023-03-22T05:12:35.816Z,100044.75
2023-03-22T05:17:51.843Z,100037.03
2023-03-22T05:22:56.835Z,100040.47
2023-03-22T05:28:03.712Z,100030.16
2023-03-22T05:33:29.569Z,100020.66
2023-03-22T05:38:32.660Z,100010.34
2023-03-22T05:43:38.177Z,100024.09
2023-03-22T05:48:41.244Z,100011.16
2023-03-22T05:53:46.046Z,100020.75
2023-03-22T05:58:52.199Z,100013.66
2023-03-22T06:03:56.487Z,100006.03
2023-03-22T06:09:18.311Z,100019.81
2023-03-22T06:14:25.162Z,100021.56
2023-03-22T06:19:54.398Z,100028.34
2023-03-22T06:24:56.123Z,100036.16
2023-03-22T06:30:08.318Z,100034.19
2023-03-22T06:35:23.257Z,100032.84
2023-03-22T06:40:25.199Z,100050.16
2023-03-22T06:45:27.900Z,100061.25
2023-03-22T06:50:29.786Z,100083.75
2023-03-22T06:55:49.302Z,100085.34
2023-03-22T07:00:57.334Z,100088.84
2023-03-22T07:06:08.635Z,100093.44
2023-03-22T07:11:13.485Z,100094.41
2023-03-22T07:16:20.170Z,100111.50
2023-03-22T07:21:32.613Z,100130.25
2023-03-22T07:26:40.939Z,100132.81
2023-03-22T07:31:45.828Z,100125.19
2023-03-22T07:36:57.389Z,100139.22
2023-03-22T07:41:59.782Z,100142.63
2023-03-22T07:47:01.535Z,100149.53
2023-03-22T07:52:13.033Z,100150.50
2023-03-22T07:57:16.560Z,100151.31
2023-03-22T08:02:29.272Z,100157.41
2023-03-22T08:07:34.644Z,100158.91
2023-03-22T08:12:36.852Z,100164.97
2023-03-22T08:17:49.776Z,100160.03
2023-03-22T08:23:01.014Z,100161.22
2023-03-22T08:28:02.709Z,100171.41
2023-03-22T08:33:07.884Z,100172.44
2023-03-22T08:38:09.676Z,100173.34
2023-03-22T08:43:19.311Z,100182.81
2023-03-22T08:48:21.320Z,100183.91
2023-03-22T08:53:39.688Z,100186.25
2023-03-22T08:59:00.316Z,100198.34
2023-03-22T09:04:10.977Z,100166.16
2023-03-22T09:09:13.154Z,100178.25
2023-03-22T09:14:16.438Z,100187.56
2023-03-22T09:19:18.712Z,100197.38
2023-03-22T09:24:20.834Z,100200.41
2023-03-22T09:29:27.648Z,100219.38
2023-03-22T09:34:29.679Z,100226.16
2023-03-22T09:39:38.391Z,100233.13
2023-03-22T09:44:42.696Z,100250.34
2023-03-22T09:49:56.835Z,100238.19
2023-03-22T09:54:59.406Z,100224.81
2023-03-22T10:00:24.175Z,100249.56
2023-03-22T10:05:57.060Z,100242.78
2023-03-22T10:10:59.919Z,100255.53
2023-03-22T10:16:07.876Z,100256.22
2023-03-22T10:21:12.683Z,100268.16
2023-03-22T10:26:21.533Z,100277.53
2023-03-22T10:31:24.103Z,100287.94
2023-03-22T10:36:33.380Z,100285.44
2023-03-22T10:41:36.230Z,100297.34
2023-03-22T10:46:40.643Z,100282.69
2023-03-22T10:51:49.314Z,100282.69
2023-03-22T10:56:51.116Z,100276.28
2023-03-22T11:01:55.344Z,100235.59
2023-03-22T11:06:57.263Z,100208.78
2023-03-22T11:12:00.645Z,100206.84
2023-03-22T11:17:10.460Z,100182.69
2023-03-22T11:22:47.359Z,100171.53
2023-03-22T11:28:17.624Z,100149.16
2023-03-22T11:33:21.766Z,100125.28
2023-03-22T11:38:34.846Z,100111.72
2023-03-22T11:43:44.876Z,100116.09
2023-03-22T11:48:49.229Z,100104.97
2023-03-22T11:53:56.677Z,100127.44
2023-03-22T11:59:04.555Z,100130.09
2023-03-22T12:04:13.531Z,100125.78
2023-03-22T12:09:38.280Z,100130.09
2023-03-22T12:15:06.390Z,100146.97
2023-03-22T12:20:30.075Z,100143.38
2023-03-22T12:25:42.325Z,100146.13
2023-03-22T12:30:48.892Z,100127.19
2023-03-22T12:35:55.297Z,100116.03
2023-03-22T12:41:01.069Z,100103.91
2023-03-22T12:46:05.367Z,100092.94
2023-03-22T12:51:13.596Z,100108.34
2023-03-22T12:56:22.057Z,100120.28
2023-03-22T13:01:33.362Z,100117.94
2023-03-22T13:06:41.518Z,100122.84
2023-03-22T13:12:04.747Z,100130.59
2023-03-22T13:17:10.914Z,100107.41
2023-03-22T13:22:22.777Z,100116.88
2023-03-22T13:27:35.576Z,100102.19
2023-03-22T13:32:37.606Z,100113.41
2023-03-22T13:37:49.401Z,100106.56
2023-03-22T13:42:51.445Z,100103.94
2023-03-22T13:48:29.146Z,100103.03
2023-03-22T13:53:31.156Z,100098.03
2023-03-22T13:58:53.134Z,100106.56
2023-03-22T14:04:01.221Z,100113.47
2023-03-22T14:09:13.571Z,100114.47
2023-03-22T14:14:22.215Z,100132.50
2023-03-22T14:19:29.137Z,100142.88
